Clara City, Minnesota
Current Conditions -  °F | °C
As of 9:54 AM on Friday 19 Dec 2014 (Local Time) from KMVE Reporting Station
Haze Haze  
Wind Chill: 23°   Ceiling: 1100
Heat Index: 28°   Visibility: 3mi
Dew Point: 28°   Wind: 5mph
Humidity: 100%   Direction: 210°SSW
Pressure: 30.16"   Gusts: NA
Location:  44.95°N, 95.37°W
Report Text: KMVE 191554Z AUTO 21004KT 3SM BR OVC011 M02/M02 A3016 RMK AO2
Loading
Personal Weather Stations






























Interactive Weather Map New forecast layout! Learn more

10-Day Weather Forecast

Advertisements
Track Severe Weather on mobile